Kuujjuarapik Airport
CYGW : now visible

Airfield :











YOU CAN JOIN US ON...

 
LOGIN :

Register | Disclaimer

   EN    FR    IT 

 









Legend :    VFR   Marginal VFR   IFR   Intensive IFR   Very Intensive IFR
Visi :
Ceiling :
>= 8 km
>= 3000ft
5 to 8 km
1000 to 3000 ft
1500m to 5 km
500 to 1000 ft
800 to 1500m
200 to 500 ft
< 800m
< 200 ft
Symbols :   Thunderstorms  Fog  Heavy snow  Heavy precipitations  Wind > 20 kt






- Airport Elevation : 34 ft
- IATA code : YGW


CYGW - Kuujjuarapik

CURRENT METAR :
  • 221200Z AUTO 14005KT 9SM BKN037 BKN050 OVC070 M03/M04 A3011 RMK SLP199

EXPIRED METARs :
  • 221134Z AUTO 13004KT 9SM SCT044 BKN055 OVC073 M03/M04 A3011 RMK SLP197
  • 221124Z AUTO 12005KT 9SM -SN BKN050 OVC055 M03/M04 A3011 RMK SLP197
  • 221109Z AUTO 13004KT 9SM SCT035 OVC055 M03/M04 A3011 RMK SLP197
  • 221052Z AUTO 13003KT 8SM -SN BKN035 OVC055 M03/M04 A3010 RMK SLP196
  • 221044Z AUTO 14003KT 5SM -SN BKN037 OVC070 M03/M04 A3010 RMK SLP196
  • 221000Z AUTO 14006KT 9SM SCT027 SCT080 BKN110 M04/M05 A3009 RMK SLP192

TAF TAF CYGW
Valid from the 22 at 12:00 until the 23 at 00:00 UTC


221140Z 2212/2224 13005KT P6SM BKN050 OVC070
TEMPO 2212/2216 5SM -SN BKN020 OVC050
BECMG 2214/2216 22012KT
FM221600 22012KT P6SM BKN030
TEMPO 2216/2224 4SM -SHSN BKN015
PROB30 2216/2224 2SM -SHSN RMK FCST BASED ON AUTO OBS. NXT FCST BY 221800Z
CZUL FIR / North America



MET'MAP, your aeronautical weather chart ! - Copyright ORBIFLY December 2007 - Disclaimer

ORBIFLY MET'MAP TEAM :

Programming & Development : Alexandra Zaïnal
Concept & original design : Baudouin d'Aumeries
Assistance for programming : Marc-Olivier Méhu
Technical & hardware support : Manuel Goepfert

Contact : metmap@orbifly.com




SOURCES & CREDITS :

   NOAA       Earth
Advisory